createdAt,value
2019-02-04T00:00:42.341Z,0.60
2019-02-04T00:03:14.186Z,0.70
2019-02-04T00:05:42.754Z,0.60
2019-02-04T00:08:11.289Z,0.60
2019-02-04T00:10:39.961Z,0.60
2019-02-04T00:13:08.590Z,0.50
2019-02-04T00:15:37.198Z,0.50
2019-02-04T00:18:06.900Z,0.40
2019-02-04T00:20:35.769Z,0.30
2019-02-04T00:23:04.480Z,0.20
2019-02-04T00:25:33.003Z,0.10
2019-02-04T00:28:01.568Z,0.10
2019-02-04T00:30:30.243Z,0.10
2019-02-04T00:32:58.906Z,0.20
2019-02-04T00:35:27.512Z,0.20
2019-02-04T00:37:56.071Z,0.30
2019-02-04T00:40:26.842Z,0.30
2019-02-04T00:42:55.494Z,0.20
2019-02-04T00:45:24.083Z,0.20
2019-02-04T00:47:54.903Z,0.10
2019-02-04T00:50:23.778Z,0.10
2019-02-04T00:52:52.781Z,-0.10
2019-02-04T00:55:21.943Z,-0.10
2019-02-04T00:57:50.578Z,-0.10
2019-02-04T01:00:28.767Z,-0.20
2019-02-04T01:02:57.438Z,-0.20
2019-02-04T01:05:26.113Z,-0.20
2019-02-04T01:07:54.913Z,-0.20
2019-02-04T01:10:26.157Z,-0.20
2019-02-04T01:12:54.866Z,-0.10
2019-02-04T01:15:23.641Z,-0.20
2019-02-04T01:17:52.200Z,-0.20
2019-02-04T01:20:26.745Z,-0.20
2019-02-04T01:22:55.649Z,-0.30
2019-02-04T01:25:24.261Z,-0.30
2019-02-04T01:27:52.963Z,-0.40
2019-02-04T01:30:23.650Z,-0.40
2019-02-04T01:32:52.290Z,-0.40
2019-02-04T01:35:20.899Z,-0.50
2019-02-04T01:37:49.934Z,-0.70
2019-02-04T01:40:23.996Z,-0.60
2019-02-04T01:42:53.102Z,-0.70
2019-02-04T01:45:21.990Z,-0.70
2019-02-04T01:47:50.625Z,-0.80
2019-02-04T01:50:21.214Z,-0.70
2019-02-04T01:52:50.009Z,-0.80
2019-02-04T01:55:18.549Z,-0.80
2019-02-04T01:57:50.205Z,-0.80
2019-02-04T02:00:24.222Z,-0.80
2019-02-04T02:02:52.791Z,-0.80
2019-02-04T02:05:21.467Z,-0.90
2019-02-04T02:07:50.174Z,-0.90
2019-02-04T02:10:21.249Z,-1.00
2019-02-04T02:12:50.257Z,-1.00
2019-02-04T02:15:19.438Z,-0.90
2019-02-04T02:17:48.485Z,-1.00
2019-02-04T02:20:19.973Z,-0.90
2019-02-04T02:22:48.514Z,-0.90
2019-02-04T02:25:17.222Z,-1.00
2019-02-04T02:27:45.905Z,-1.20
2019-02-04T02:30:17.583Z,-1.20
2019-02-04T02:32:46.185Z,-1.20
2019-02-04T02:35:15.517Z,-1.20
2019-02-04T02:37:44.135Z,-1.20
2019-02-04T02:40:18.307Z,-1.20
2019-02-04T02:42:46.854Z,-1.30
2019-02-04T02:45:15.834Z,-1.20
2019-02-04T02:47:44.437Z,-1.20
2019-02-04T02:50:14.983Z,-1.20
2019-02-04T02:52:43.792Z,-1.20
2019-02-04T02:55:17.204Z,-1.20
2019-02-04T02:57:45.800Z,-1.20
2019-02-04T03:00:17.507Z,-1.20
2019-02-04T03:02:46.134Z,-1.20
2019-02-04T03:05:16.742Z,-1.20
2019-02-04T03:07:45.438Z,-1.30
2019-02-04T03:10:23.179Z,-1.30
2019-02-04T03:12:51.794Z,-1.30
2019-02-04T03:15:20.444Z,-1.20
2019-02-04T03:17:52.066Z,-1.30
2019-02-04T03:20:19.395Z,-1.30
2019-02-04T03:22:48.019Z,-1.50
2019-02-04T03:25:16.653Z,-1.40
2019-02-04T03:27:45.201Z,-1.60
2019-02-04T03:30:16.972Z,-1.60
2019-02-04T03:32:46.459Z,-1.60
2019-02-04T03:35:15.166Z,-1.50
2019-02-04T03:37:43.709Z,-1.60
2019-02-04T03:40:15.428Z,-1.50
2019-02-04T03:42:43.968Z,-1.50
2019-02-04T03:45:14.165Z,-1.50
2019-02-04T03:47:42.860Z,-1.60
2019-02-04T03:50:13.162Z,-1.70
2019-02-04T03:52:41.769Z,-1.70
2019-02-04T03:55:16.133Z,-1.70
2019-02-04T03:57:44.961Z,-1.70
2019-02-04T04:00:19.267Z,-1.80
2019-02-04T04:02:47.810Z,-1.80
2019-02-04T04:05:16.391Z,-1.80
2019-02-04T04:07:45.199Z,-1.80
2019-02-04T04:10:14.515Z,-1.90
2019-02-04T04:12:43.426Z,-1.90
2019-02-04T04:15:14.397Z,-1.80
2019-02-04T04:17:43.265Z,-1.90
2019-02-04T04:20:19.442Z,-1.80
2019-02-04T04:22:47.979Z,-1.80
2019-02-04T04:25:17.999Z,-1.80
2019-02-04T04:27:48.487Z,-1.80
2019-02-04T04:30:22.287Z,-1.70
2019-02-04T04:32:50.891Z,-1.90
2019-02-04T04:35:19.535Z,-1.90
2019-02-04T04:37:48.216Z,-1.90
2019-02-04T04:40:17.331Z,-2.00
2019-02-04T04:42:46.033Z,-2.10
2019-02-04T04:45:17.146Z,-2.10
2019-02-04T04:47:45.762Z,-2.10
2019-02-04T04:50:14.817Z,-2.10
2019-02-04T04:52:43.607Z,-2.10
2019-02-04T04:55:15.407Z,-2.10
2019-02-04T04:57:44.047Z,-2.10
2019-02-04T05:00:15.497Z,-2.10
2019-02-04T05:02:44.563Z,-2.10
2019-02-04T05:05:14.439Z,-2.10
2019-02-04T05:07:43.379Z,-2.00
2019-02-04T05:10:17.862Z,-2.10
2019-02-04T05:12:46.443Z,-2.10
2019-02-04T05:15:17.903Z,-2.00
2019-02-04T05:17:46.538Z,-2.00
2019-02-04T05:20:17.113Z,-2.20
2019-02-04T05:22:45.675Z,-2.30
2019-02-04T05:25:15.360Z,-2.20
2019-02-04T05:27:43.998Z,-2.30
2019-02-04T05:30:20.829Z,-2.40
2019-02-04T05:32:49.471Z,-2.50
2019-02-04T05:35:18.158Z,-2.40
2019-02-04T05:37:46.714Z,-2.30
2019-02-04T05:40:18.361Z,-2.20
2019-02-04T05:42:47.969Z,-2.30
2019-02-04T05:45:18.556Z,-2.30
2019-02-04T05:47:47.186Z,-2.20
2019-02-04T05:50:17.922Z,-2.10
2019-02-04T05:52:46.985Z,-2.20
2019-02-04T05:55:16.866Z,-2.30
2019-02-04T05:57:45.507Z,-2.30
2019-02-04T06:00:18.657Z,-2.30
2019-02-04T06:02:47.239Z,-2.40
2019-02-04T06:05:16.254Z,-2.50
2019-02-04T06:07:44.822Z,-2.40
2019-02-04T06:10:13.498Z,-2.40
2019-02-04T06:12:42.145Z,-2.50
2019-02-04T06:15:15.725Z,-2.40
2019-02-04T06:17:44.301Z,-2.50
2019-02-04T06:20:16.251Z,-2.60
2019-02-04T06:22:44.819Z,-2.50
2019-02-04T06:25:13.736Z,-2.40
2019-02-04T06:27:42.441Z,-2.30
2019-02-04T06:30:13.834Z,-2.50
2019-02-04T06:32:42.411Z,-2.50
2019-02-04T06:35:12.143Z,-2.60
2019-02-04T06:37:40.846Z,-2.80
2019-02-04T06:40:12.142Z,-2.70
2019-02-04T06:42:40.849Z,-2.60
2019-02-04T06:45:12.138Z,-2.60
2019-02-04T06:47:40.766Z,-2.70
2019-02-04T06:50:20.317Z,-2.70
2019-02-04T06:52:49.022Z,-2.70
2019-02-04T06:55:20.004Z,-2.70
2019-02-04T06:57:48.657Z,-2.70
2019-02-04T07:00:18.925Z,-2.70
2019-02-04T07:02:47.571Z,-2.70
2019-02-04T07:05:17.196Z,-2.70
2019-02-04T07:07:45.993Z,-2.60
2019-02-04T07:10:17.183Z,-2.60
2019-02-04T07:12:45.758Z,-2.70
2019-02-04T07:15:14.446Z,-2.50
2019-02-04T07:17:43.081Z,-2.40
2019-02-04T07:20:17.794Z,-2.50
2019-02-04T07:22:46.434Z,-2.50
2019-02-04T07:25:16.205Z,-2.60
2019-02-04T07:27:44.860Z,-2.60
2019-02-04T07:30:21.854Z,-2.60
2019-02-04T07:32:50.523Z,-2.60
2019-02-04T07:35:19.902Z,-2.60
2019-02-04T07:37:49.087Z,-2.50
2019-02-04T07:40:22.834Z,-2.40
2019-02-04T07:42:52.395Z,-2.30
2019-02-04T07:45:21.099Z,-2.20
2019-02-04T07:47:50.519Z,-2.20
2019-02-04T07:50:19.226Z,-2.10
2019-02-04T07:52:48.090Z,-2.00
2019-02-04T07:55:16.741Z,-1.90
2019-02-04T07:57:45.283Z,-1.80
2019-02-04T08:00:28.977Z,-1.60
2019-02-04T08:02:57.656Z,-1.50
2019-02-04T08:05:26.372Z,-1.40
2019-02-04T08:07:55.072Z,-1.30
2019-02-04T08:10:24.025Z,-1.10
2019-02-04T08:13:01.040Z,-0.90
2019-02-04T08:15:31.765Z,-0.90
2019-02-04T08:18:00.311Z,-0.80
2019-02-04T08:20:28.888Z,-0.70
2019-02-04T08:22:57.786Z,-0.50
2019-02-04T08:25:26.504Z,-0.40
2019-02-04T08:27:56.893Z,-0.20
2019-02-04T08:30:33.332Z,0.00
2019-02-04T08:33:02.018Z,0.20
2019-02-04T08:35:31.127Z,0.30
2019-02-04T08:37:59.804Z,0.50
2019-02-04T08:40:28.547Z,0.50
2019-02-04T08:42:57.454Z,0.70
2019-02-04T08:45:26.194Z,0.80
2019-02-04T08:47:55.163Z,0.90
2019-02-04T08:50:28.134Z,1.00
2019-02-04T08:52:56.755Z,1.10
2019-02-04T08:55:25.396Z,1.30
2019-02-04T08:57:54.705Z,1.40
2019-02-04T09:00:24.816Z,1.20
2019-02-04T09:02:53.530Z,1.40
2019-02-04T09:05:23.778Z,1.60
2019-02-04T09:07:52.662Z,1.70
2019-02-04T09:10:29.771Z,1.90
2019-02-04T09:12:58.550Z,2.00
2019-02-04T09:15:27.441Z,2.30
2019-02-04T09:17:56.357Z,2.50
2019-02-04T09:20:25.130Z,2.60
2019-02-04T09:22:53.754Z,2.70
2019-02-04T09:25:24.755Z,2.80
2019-02-04T09:27:53.463Z,2.60
2019-02-04T09:30:24.539Z,2.90
2019-02-04T09:32:53.957Z,3.10
2019-02-04T09:35:23.591Z,3.10
2019-02-04T09:37:55.326Z,2.90
2019-02-04T09:40:30.132Z,3.10
2019-02-04T09:42:58.625Z,3.10
2019-02-04T09:45:28.055Z,3.10
2019-02-04T09:47:57.222Z,3.20
2019-02-04T09:50:28.622Z,3.30
2019-02-04T09:52:57.230Z,3.40
2019-02-04T09:55:31.630Z,3.50
2019-02-04T09:58:00.171Z,3.50
2019-02-04T10:00:31.483Z,3.60
2019-02-04T10:03:00.099Z,3.60
2019-02-04T10:05:28.793Z,3.80
2019-02-04T10:07:57.478Z,4.00
2019-02-04T10:10:32.909Z,4.00
2019-02-04T10:13:01.613Z,4.20
2019-02-04T10:15:39.084Z,4.40
2019-02-04T10:18:08.436Z,4.60
2019-02-04T10:20:37.424Z,4.80
2019-02-04T10:23:07.225Z,4.90
2019-02-04T10:25:40.901Z,5.00
2019-02-04T10:28:10.732Z,5.10
2019-02-04T10:30:39.417Z,5.10
2019-02-04T10:33:08.033Z,5.30
2019-02-04T10:35:36.555Z,5.40
2019-02-04T10:38:06.007Z,5.40
2019-02-04T10:40:34.577Z,5.30
2019-02-04T10:43:03.219Z,5.50
2019-02-04T10:45:32.062Z,5.60
2019-02-04T10:48:00.640Z,5.60
2019-02-04T10:50:47.049Z,5.60
2019-02-04T10:53:14.130Z,5.90
2019-02-04T10:55:42.759Z,5.90
2019-02-04T10:58:13.172Z,6.00
2019-02-04T11:00:42.544Z,6.20
2019-02-04T11:03:11.218Z,6.20
2019-02-04T11:05:42.426Z,6.00
2019-02-04T11:08:12.986Z,6.00
2019-02-04T11:10:41.815Z,6.10
2019-02-04T11:13:13.519Z,6.30
2019-02-04T11:15:42.906Z,6.20
2019-02-04T11:18:12.312Z,6.10
2019-02-04T11:20:41.768Z,6.20
2019-02-04T11:23:10.482Z,6.20
2019-02-04T11:25:39.354Z,6.20
2019-02-04T11:28:08.954Z,6.30
2019-02-04T11:30:40.620Z,6.30
2019-02-04T11:33:09.906Z,6.30
2019-02-04T11:35:38.588Z,6.40
2019-02-04T11:38:07.269Z,6.40
2019-02-04T11:40:40.637Z,6.40
2019-02-04T11:43:10.286Z,6.30
2019-02-04T11:45:38.962Z,6.30
2019-02-04T11:48:12.962Z,6.40
2019-02-04T11:50:41.594Z,6.40
2019-02-04T11:53:10.303Z,6.40
2019-02-04T11:55:38.908Z,6.30
2019-02-04T11:58:08.153Z,6.30
2019-02-04T12:00:38.082Z,6.30
2019-02-04T12:03:09.370Z,6.30
2019-02-04T12:05:37.886Z,6.40
2019-02-04T12:08:07.397Z,6.40
2019-02-04T12:10:38.983Z,6.50
2019-02-04T12:13:07.567Z,6.60
2019-02-04T12:15:36.244Z,6.50
2019-02-04T12:18:05.418Z,6.60
2019-02-04T12:20:34.125Z,6.60
2019-02-04T12:23:02.733Z,6.60
2019-02-04T12:25:31.358Z,6.60
2019-02-04T12:28:00.312Z,6.60
2019-02-04T12:30:34.487Z,6.70
2019-02-04T12:33:04.579Z,6.70
2019-02-04T12:35:33.220Z,6.50
2019-02-04T12:38:01.818Z,6.50
2019-02-04T12:40:30.780Z,6.50
2019-02-04T12:42:59.386Z,6.60
2019-02-04T12:45:33.807Z,6.60
2019-02-04T12:48:02.507Z,6.70
2019-02-04T12:50:31.211Z,6.60
2019-02-04T12:52:59.821Z,6.60
2019-02-04T12:55:30.977Z,6.60
2019-02-04T12:57:59.751Z,6.50
2019-02-04T13:00:30.427Z,6.50
2019-02-04T13:02:59.307Z,6.70
2019-02-04T13:05:33.566Z,6.60
2019-02-04T13:08:02.100Z,6.50
2019-02-04T13:10:30.731Z,6.40
2019-02-04T13:12:59.335Z,6.40
2019-02-04T13:15:28.044Z,6.60
2019-02-04T13:17:56.911Z,6.70
2019-02-04T13:20:25.614Z,6.70
2019-02-04T13:22:54.147Z,6.70
2019-02-04T13:25:27.845Z,6.60
2019-02-04T13:27:56.722Z,6.60
2019-02-04T13:30:27.466Z,6.50
2019-02-04T13:32:56.566Z,6.70
2019-02-04T13:35:25.371Z,6.80
2019-02-04T13:37:54.547Z,6.90
2019-02-04T13:40:26.182Z,6.90
2019-02-04T13:42:55.065Z,7.00
2019-02-04T13:45:24.011Z,6.90
2019-02-04T13:47:53.915Z,6.80
2019-02-04T13:50:23.678Z,6.70
2019-02-04T13:52:53.474Z,6.70
2019-02-04T13:55:30.207Z,6.70
2019-02-04T13:57:58.839Z,6.90
2019-02-04T14:00:27.826Z,7.00
2019-02-04T14:02:59.496Z,7.00
2019-02-04T14:05:31.307Z,6.90
2019-02-04T14:08:01.159Z,7.00
2019-02-04T14:10:36.021Z,7.00
2019-02-04T14:13:05.505Z,6.90
2019-02-04T14:15:35.580Z,6.70
2019-02-04T14:18:06.191Z,6.80
2019-02-04T14:20:35.135Z,6.70
2019-02-04T14:23:04.242Z,6.80
2019-02-04T14:25:32.918Z,6.80
2019-02-04T14:28:03.706Z,6.60
2019-02-04T14:30:34.974Z,6.50
2019-02-04T14:33:03.971Z,6.40
2019-02-04T14:35:32.640Z,6.30
2019-02-04T14:38:01.546Z,6.20
2019-02-04T14:40:30.319Z,6.20
2019-02-04T14:43:02.411Z,6.20
2019-02-04T14:46:04.238Z,6.00
2019-02-04T14:49:07.623Z,6.00
2019-02-04T14:51:47.890Z,6.10
2019-02-04T14:54:37.674Z,6.00
2019-02-04T14:57:25.901Z,6.00
2019-02-04T14:59:57.374Z,5.90
2019-02-04T15:02:29.015Z,5.90
2019-02-04T15:05:03.414Z,5.80
2019-02-04T15:07:57.744Z,5.80
2019-02-04T15:10:35.639Z,5.70
2019-02-04T15:13:22.452Z,5.70
2019-02-04T15:16:10.381Z,5.60
2019-02-04T15:19:00.398Z,5.70
2019-02-04T15:21:32.251Z,5.60
2019-02-04T15:24:09.579Z,5.50
2019-02-04T15:26:57.904Z,5.40
2019-02-04T15:29:32.092Z,5.40
2019-02-04T15:32:03.694Z,5.30
2019-02-04T15:35:04.189Z,5.30
2019-02-04T15:37:38.263Z,5.40
2019-02-04T15:40:19.128Z,5.40
2019-02-04T15:43:02.144Z,5.30
2019-02-04T15:45:48.811Z,5.40
2019-02-04T15:48:19.106Z,5.40
2019-02-04T15:51:17.793Z,5.40
2019-02-04T15:53:46.468Z,5.50
2019-02-04T15:56:15.069Z,5.40
2019-02-04T15:58:43.607Z,5.50
2019-02-04T16:01:12.166Z,5.40
2019-02-04T16:03:40.705Z,5.50
2019-02-04T16:06:09.335Z,5.40
2019-02-04T16:08:37.954Z,5.50
2019-02-04T16:11:06.919Z,5.50
2019-02-04T16:13:35.455Z,5.60
2019-02-04T16:16:04.479Z,5.60
2019-02-04T16:18:33.017Z,5.60
2019-02-04T16:21:01.579Z,5.50
2019-02-04T16:23:30.427Z,5.50
2019-02-04T16:25:59.272Z,5.30
2019-02-04T16:28:27.811Z,5.30
2019-02-04T16:30:56.380Z,5.30
2019-02-04T16:33:24.914Z,5.30
2019-02-04T16:35:53.743Z,5.40
2019-02-04T16:38:22.275Z,5.30
2019-02-04T16:40:50.904Z,5.30
2019-02-04T16:43:19.786Z,5.20
2019-02-04T16:45:48.423Z,5.20
2019-02-04T16:48:16.957Z,5.30
2019-02-04T16:50:57.402Z,5.20
2019-02-04T16:53:15.690Z,5.30
2019-02-04T16:55:44.317Z,5.30
2019-02-04T16:58:13.058Z,5.30
2019-02-04T17:00:41.623Z,5.20
2019-02-04T17:03:10.227Z,5.10
2019-02-04T17:05:39.082Z,5.20
2019-02-04T17:08:08.287Z,5.20
2019-02-04T17:10:36.843Z,5.10
2019-02-04T17:13:06.134Z,5.10
2019-02-04T17:15:35.023Z,5.20
2019-02-04T17:18:03.657Z,5.10
2019-02-04T17:20:34.170Z,5.10
2019-02-04T17:23:02.730Z,4.90
2019-02-04T17:25:31.335Z,4.70
2019-02-04T17:28:00.367Z,4.70
2019-02-04T17:30:29.147Z,4.90
2019-02-04T17:32:57.706Z,4.90
2019-02-04T17:35:26.482Z,4.80
2019-02-04T17:37:55.111Z,4.80
2019-02-04T17:40:24.682Z,4.80
2019-02-04T17:42:54.383Z,4.90
2019-02-04T17:45:23.084Z,4.80
2019-02-04T17:47:52.895Z,4.60
2019-02-04T17:50:22.694Z,4.60
2019-02-04T17:52:51.611Z,4.60
2019-02-04T17:55:22.691Z,4.50
2019-02-04T17:57:51.636Z,4.40
2019-02-04T18:00:32.339Z,4.40
2019-02-04T18:03:01.066Z,4.40
2019-02-04T18:05:29.752Z,4.50
2019-02-04T18:07:58.391Z,4.50
2019-02-04T18:10:27.075Z,4.50
2019-02-04T18:12:55.719Z,4.40
2019-02-04T18:15:24.735Z,4.30
2019-02-04T18:17:53.451Z,4.40
2019-02-04T18:20:22.055Z,4.30
2019-02-04T18:22:50.628Z,4.40
2019-02-04T18:25:23.226Z,4.40
2019-02-04T18:27:51.807Z,4.40
2019-02-04T18:30:23.046Z,4.30
2019-02-04T18:33:10.951Z,4.30
2019-02-04T18:35:42.773Z,4.40
2019-02-04T18:38:11.344Z,4.20
2019-02-04T18:40:39.953Z,4.20
2019-02-04T18:43:08.527Z,4.30
2019-02-04T18:45:37.138Z,4.20
2019-02-04T18:48:06.363Z,4.20
2019-02-04T18:50:35.778Z,4.10
2019-02-04T18:53:05.184Z,4.10
2019-02-04T18:55:34.182Z,4.00
2019-02-04T18:58:02.998Z,4.00
2019-02-04T19:00:33.171Z,4.00
2019-02-04T19:03:03.692Z,3.90
2019-02-04T19:05:32.476Z,3.90
2019-02-04T19:08:01.265Z,3.80
2019-02-04T19:10:29.827Z,3.80
2019-02-04T19:12:58.370Z,3.80
2019-02-04T19:15:29.173Z,3.60
2019-02-04T19:18:07.504Z,3.50
2019-02-04T19:20:36.046Z,3.50
2019-02-04T19:23:04.874Z,3.60
2019-02-04T19:25:33.490Z,3.60
2019-02-04T19:28:02.064Z,3.50
2019-02-04T19:30:36.373Z,3.40
2019-02-04T19:33:05.180Z,3.40
2019-02-04T19:35:33.899Z,3.10
2019-02-04T19:38:02.546Z,3.10
2019-02-04T19:40:31.180Z,3.40
2019-02-04T19:42:59.714Z,3.30
2019-02-04T19:45:29.251Z,3.30
2019-02-04T19:47:57.929Z,3.40
2019-02-04T19:50:29.573Z,3.30
2019-02-04T19:52:58.181Z,3.30
2019-02-04T19:55:26.950Z,3.30
2019-02-04T19:57:55.567Z,3.20
2019-02-04T20:00:24.783Z,3.30
2019-02-04T20:02:53.859Z,3.20
2019-02-04T20:05:32.967Z,3.20
2019-02-04T20:08:01.748Z,3.20
2019-02-04T20:10:32.901Z,3.20
2019-02-04T20:13:02.689Z,3.00
2019-02-04T20:15:32.511Z,3.10
2019-02-04T20:18:01.196Z,3.00
2019-02-04T20:20:30.108Z,3.00
2019-02-04T20:22:58.821Z,3.00
2019-02-04T20:25:31.695Z,2.90
2019-02-04T20:28:00.487Z,2.80
2019-02-04T20:30:46.203Z,2.80
2019-02-04T20:33:13.411Z,2.80
2019-02-04T20:35:42.148Z,3.00
2019-02-04T20:38:11.320Z,3.00
2019-02-04T20:40:39.897Z,2.90
2019-02-04T20:43:09.402Z,2.90
2019-02-04T20:45:38.208Z,3.00
2019-02-04T20:48:09.758Z,2.90
2019-02-04T20:50:44.378Z,3.00
2019-02-04T20:53:13.004Z,3.10
2019-02-04T20:55:41.882Z,3.20
2019-02-04T20:58:10.492Z,3.10
2019-02-04T21:00:39.125Z,2.90
2019-02-04T21:03:07.739Z,2.80
2019-02-04T21:05:36.447Z,3.00
2019-02-04T21:08:05.955Z,2.90
2019-02-04T21:10:34.924Z,2.90
2019-02-04T21:13:03.524Z,2.90
2019-02-04T21:15:32.238Z,2.90
2019-02-04T21:18:00.840Z,3.00
2019-02-04T21:20:30.593Z,2.90
2019-02-04T21:22:59.147Z,3.00
2019-02-04T21:25:27.870Z,2.90
2019-02-04T21:27:56.487Z,2.80
2019-02-04T21:30:27.530Z,2.70
2019-02-04T21:32:56.235Z,2.70
2019-02-04T21:35:24.926Z,2.70
2019-02-04T21:37:53.504Z,2.70
2019-02-04T21:40:22.123Z,2.80
2019-02-04T21:42:50.775Z,2.70
2019-02-04T21:45:24.056Z,2.80
2019-02-04T21:47:52.779Z,2.80
2019-02-04T21:50:23.823Z,2.80
2019-02-04T21:52:52.480Z,2.90
2019-02-04T21:55:21.764Z,2.80
2019-02-04T21:57:50.663Z,2.80
2019-02-04T22:00:27.707Z,2.70
2019-02-04T22:02:56.416Z,2.80
2019-02-04T22:05:27.095Z,2.80
2019-02-04T22:07:55.676Z,2.80
2019-02-04T22:10:26.730Z,2.70
2019-02-04T22:12:55.387Z,2.60
2019-02-04T22:15:24.513Z,2.60
2019-02-04T22:17:53.211Z,2.60
2019-02-04T22:20:21.909Z,2.60
2019-02-04T22:22:50.548Z,2.50
2019-02-04T22:25:22.162Z,2.60
2019-02-04T22:27:50.788Z,2.70
2019-02-04T22:30:21.767Z,2.60
2019-02-04T22:32:50.398Z,2.60
2019-02-04T22:35:19.354Z,2.70
2019-02-04T22:37:48.251Z,2.60
2019-02-04T22:40:22.486Z,2.50
2019-02-04T22:42:51.482Z,2.60
2019-02-04T22:45:20.263Z,2.60
2019-02-04T22:47:48.849Z,2.80
2019-02-04T22:50:25.484Z,2.80
2019-02-04T22:52:54.140Z,2.70
2019-02-04T22:55:31.481Z,2.70
2019-02-04T22:57:56.750Z,2.50
2019-02-04T23:00:41.479Z,2.40
2019-02-04T23:03:10.679Z,2.40
2019-02-04T23:05:39.285Z,2.40
2019-02-04T23:08:07.932Z,2.50
2019-02-04T23:10:36.598Z,2.60
2019-02-04T23:13:06.355Z,2.70
2019-02-04T23:15:35.125Z,2.60
2019-02-04T23:18:04.829Z,2.50
2019-02-04T23:20:33.506Z,2.50
2019-02-04T23:23:02.071Z,2.50
2019-02-04T23:25:30.608Z,2.50
2019-02-04T23:27:59.253Z,2.40
2019-02-04T23:30:27.864Z,2.50
2019-02-04T23:32:56.396Z,2.40
2019-02-04T23:35:25.497Z,2.50
2019-02-04T23:37:54.120Z,2.50
2019-02-04T23:40:22.859Z,2.60
2019-02-04T23:42:51.487Z,2.60
2019-02-04T23:45:20.120Z,2.50
2019-02-04T23:47:48.677Z,2.70
2019-02-04T23:50:17.890Z,2.60
2019-02-04T23:52:46.826Z,2.60
2019-02-04T23:55:15.557Z,2.60
2019-02-04T23:57:44.114Z,2.60
